sensor_id;sensor_type;location;lat;lon;timestamp;pressure;altitude;pressure_sealevel;temperature;humidity
73633;BME280;61927;50.080;14.418;2023-04-24T00:00:05;98373.34;;;11.62;76.10
73633;BME280;61927;50.080;14.418;2023-04-24T00:02:32;98364.28;;;11.64;75.89
73633;BME280;61927;50.080;14.418;2023-04-24T00:04:58;98368.81;;;11.74;75.75
73633;BME280;61927;50.080;14.418;2023-04-24T00:07:29;98367.84;;;11.75;75.42
73633;BME280;61927;50.080;14.418;2023-04-24T00:09:54;98360.50;;;11.78;74.84
73633;BME280;61927;50.080;14.418;2023-04-24T00:12:20;98364.97;;;11.78;74.77
73633;BME280;61927;50.080;14.418;2023-04-24T00:14:46;98358.91;;;11.76;74.76
73633;BME280;61927;50.080;14.418;2023-04-24T00:17:12;98362.06;;;11.70;74.68
73633;BME280;61927;50.080;14.418;2023-04-24T00:19:38;98360.06;;;11.62;74.87
73633;BME280;61927;50.080;14.418;2023-04-24T00:22:04;98357.53;;;11.60;74.81
73633;BME280;61927;50.080;14.418;2023-04-24T00:24:29;98354.63;;;11.63;74.93
73633;BME280;61927;50.080;14.418;2023-04-24T00:26:55;98343.59;;;11.68;74.38
73633;BME280;61927;50.080;14.418;2023-04-24T00:29:21;98346.13;;;11.70;74.81
73633;BME280;61927;50.080;14.418;2023-04-24T00:31:47;98339.59;;;11.74;74.43
73633;BME280;61927;50.080;14.418;2023-04-24T00:34:12;98335.47;;;11.81;74.11
73633;BME280;61927;50.080;14.418;2023-04-24T00:36:38;98335.22;;;11.84;73.90
73633;BME280;61927;50.080;14.418;2023-04-24T00:39:03;98333.66;;;11.81;74.02
73633;BME280;61927;50.080;14.418;2023-04-24T00:41:29;98329.19;;;11.82;74.13
73633;BME280;61927;50.080;14.418;2023-04-24T00:43:55;98328.66;;;11.88;73.87
73633;BME280;61927;50.080;14.418;2023-04-24T00:46:21;98332.47;;;11.95;73.65
73633;BME280;61927;50.080;14.418;2023-04-24T00:48:47;98322.56;;;11.97;73.48
73633;BME280;61927;50.080;14.418;2023-04-24T00:51:13;98319.19;;;11.95;73.49
73633;BME280;61927;50.080;14.418;2023-04-24T00:53:38;98315.94;;;11.91;73.42
73633;BME280;61927;50.080;14.418;2023-04-24T00:56:04;98313.44;;;11.90;73.94
73633;BME280;61927;50.080;14.418;2023-04-24T00:58:30;98308.81;;;11.92;73.75
73633;BME280;61927;50.080;14.418;2023-04-24T01:00:57;98317.81;;;12.01;73.44
73633;BME280;61927;50.080;14.418;2023-04-24T01:03:27;98320.22;;;12.04;73.17
73633;BME280;61927;50.080;14.418;2023-04-24T01:05:55;98318.72;;;12.11;72.83
73633;BME280;61927;50.080;14.418;2023-04-24T01:08:23;98323.91;;;12.12;72.86
73633;BME280;61927;50.080;14.418;2023-04-24T01:10:51;98312.59;;;12.20;72.27
73633;BME280;61927;50.080;14.418;2023-04-24T01:13:18;98319.75;;;12.19;72.28
73633;BME280;61927;50.080;14.418;2023-04-24T01:15:44;98309.25;;;12.18;72.37
73633;BME280;61927;50.080;14.418;2023-04-24T01:18:10;98315.13;;;12.21;72.00
73633;BME280;61927;50.080;14.418;2023-04-24T01:20:36;98316.56;;;12.25;71.53
73633;BME280;61927;50.080;14.418;2023-04-24T01:23:05;98306.63;;;12.27;70.92
73633;BME280;61927;50.080;14.418;2023-04-24T01:25:32;98306.22;;;12.32;70.47
73633;BME280;61927;50.080;14.418;2023-04-24T01:27:58;98299.78;;;12.35;69.76
73633;BME280;61927;50.080;14.418;2023-04-24T01:30:24;98302.59;;;12.33;69.78
73633;BME280;61927;50.080;14.418;2023-04-24T01:32:50;98306.50;;;12.29;69.89
73633;BME280;61927;50.080;14.418;2023-04-24T01:35:17;98318.94;;;12.28;70.08
73633;BME280;61927;50.080;14.418;2023-04-24T01:37:42;98308.31;;;12.28;69.60
73633;BME280;61927;50.080;14.418;2023-04-24T01:40:09;98302.28;;;12.26;69.96
73633;BME280;61927;50.080;14.418;2023-04-24T01:42:35;98313.06;;;12.25;69.87
73633;BME280;61927;50.080;14.418;2023-04-24T01:45:02;98314.75;;;12.26;70.11
73633;BME280;61927;50.080;14.418;2023-04-24T01:47:29;98305.38;;;12.32;70.04
73633;BME280;61927;50.080;14.418;2023-04-24T01:49:55;98305.56;;;12.40;69.74
73633;BME280;61927;50.080;14.418;2023-04-24T01:52:21;98298.28;;;12.42;69.41
73633;BME280;61927;50.080;14.418;2023-04-24T01:54:47;98297.84;;;12.37;69.81
73633;BME280;61927;50.080;14.418;2023-04-24T01:57:14;98291.38;;;12.29;70.18
73633;BME280;61927;50.080;14.418;2023-04-24T01:59:40;98293.19;;;12.29;70.43
73633;BME280;61927;50.080;14.418;2023-04-24T02:02:06;98287.28;;;12.25;70.72
73633;BME280;61927;50.080;14.418;2023-04-24T02:04:31;98289.97;;;12.25;70.96
73633;BME280;61927;50.080;14.418;2023-04-24T02:06:57;98289.44;;;12.32;70.97
73633;BME280;61927;50.080;14.418;2023-04-24T02:09:23;98286.94;;;12.40;70.73
73633;BME280;61927;50.080;14.418;2023-04-24T02:11:48;98284.84;;;12.43;70.86
73633;BME280;61927;50.080;14.418;2023-04-24T02:14:14;98283.16;;;12.42;70.86
73633;BME280;61927;50.080;14.418;2023-04-24T02:16:39;98286.25;;;12.47;71.13
73633;BME280;61927;50.080;14.418;2023-04-24T02:19:05;98277.31;;;12.48;71.17
73633;BME280;61927;50.080;14.418;2023-04-24T02:21:31;98280.41;;;12.53;71.55
73633;BME280;61927;50.080;14.418;2023-04-24T02:23:57;98280.09;;;12.47;71.55
73633;BME280;61927;50.080;14.418;2023-04-24T02:26:22;98286.94;;;12.40;71.75
73633;BME280;61927;50.080;14.418;2023-04-24T02:28:48;98286.34;;;12.36;72.03
73633;BME280;61927;50.080;14.418;2023-04-24T02:31:14;98284.81;;;12.34;72.57
73633;BME280;61927;50.080;14.418;2023-04-24T02:33:40;98288.19;;;12.36;72.12
73633;BME280;61927;50.080;14.418;2023-04-24T02:36:05;98286.50;;;12.35;72.33
73633;BME280;61927;50.080;14.418;2023-04-24T02:38:31;98283.69;;;12.36;72.31
73633;BME280;61927;50.080;14.418;2023-04-24T02:40:57;98293.38;;;12.37;72.50
73633;BME280;61927;50.080;14.418;2023-04-24T02:43:23;98289.59;;;12.40;72.43
73633;BME280;61927;50.080;14.418;2023-04-24T02:45:48;98288.06;;;12.47;72.23
73633;BME280;61927;50.080;14.418;2023-04-24T02:48:14;98289.31;;;12.43;72.37
73633;BME280;61927;50.080;14.418;2023-04-24T02:50:40;98290.31;;;12.42;72.40
73633;BME280;61927;50.080;14.418;2023-04-24T02:53:06;98289.59;;;12.40;72.50
73633;BME280;61927;50.080;14.418;2023-04-24T02:55:32;98283.44;;;12.39;72.72
73633;BME280;61927;50.080;14.418;2023-04-24T02:57:57;98284.13;;;12.41;72.42
73633;BME280;61927;50.080;14.418;2023-04-24T03:00:23;98277.13;;;12.40;72.47
73633;BME280;61927;50.080;14.418;2023-04-24T03:02:49;98281.47;;;12.41;72.41
73633;BME280;61927;50.080;14.418;2023-04-24T03:05:15;98277.72;;;12.44;72.60
73633;BME280;61927;50.080;14.418;2023-04-24T03:07:41;98284.97;;;12.42;72.73
73633;BME280;61927;50.080;14.418;2023-04-24T03:10:07;98277.28;;;12.39;72.89
73633;BME280;61927;50.080;14.418;2023-04-24T03:12:33;98283.28;;;12.41;72.83
73633;BME280;61927;50.080;14.418;2023-04-24T03:14:58;98281.34;;;12.43;73.06
73633;BME280;61927;50.080;14.418;2023-04-24T03:17:24;98282.19;;;12.43;73.32
73633;BME280;61927;50.080;14.418;2023-04-24T03:19:50;98280.38;;;12.44;73.56
73633;BME280;61927;50.080;14.418;2023-04-24T03:22:16;98270.00;;;12.41;73.82
73633;BME280;61927;50.080;14.418;2023-04-24T03:24:41;98280.63;;;12.41;73.98
73633;BME280;61927;50.080;14.418;2023-04-24T03:27:07;98271.81;;;12.40;73.88
73633;BME280;61927;50.080;14.418;2023-04-24T03:29:32;98279.78;;;12.40;74.08
73633;BME280;61927;50.080;14.418;2023-04-24T03:31:58;98270.00;;;12.41;74.48
73633;BME280;61927;50.080;14.418;2023-04-24T03:34:23;98271.53;;;12.43;74.01
73633;BME280;61927;50.080;14.418;2023-04-24T03:36:49;98276.03;;;12.43;74.29
73633;BME280;61927;50.080;14.418;2023-04-24T03:39:15;98272.38;;;12.44;74.29
73633;BME280;61927;50.080;14.418;2023-04-24T03:41:41;98272.56;;;12.52;74.06
73633;BME280;61927;50.080;14.418;2023-04-24T03:44:06;98277.44;;;12.47;74.07
73633;BME280;61927;50.080;14.418;2023-04-24T03:46:32;98271.53;;;12.43;74.22
73633;BME280;61927;50.080;14.418;2023-04-24T03:48:57;98282.59;;;12.39;74.77
73633;BME280;61927;50.080;14.418;2023-04-24T03:51:23;98279.34;;;12.35;74.62
73633;BME280;61927;50.080;14.418;2023-04-24T03:53:49;98283.44;;;12.39;75.07
73633;BME280;61927;50.080;14.418;2023-04-24T03:56:14;98285.69;;;12.44;74.59
73633;BME280;61927;50.080;14.418;2023-04-24T03:58:40;98276.88;;;12.43;74.61
73633;BME280;61927;50.080;14.418;2023-04-24T04:01:06;98284.84;;;12.43;74.30
73633;BME280;61927;50.080;14.418;2023-04-24T04:03:31;98289.59;;;12.40;74.69
73633;BME280;61927;50.080;14.418;2023-04-24T04:05:57;98285.97;;;12.41;74.68
73633;BME280;61927;50.080;14.418;2023-04-24T04:08:23;98291.97;;;12.43;74.36
73633;BME280;61927;50.080;14.418;2023-04-24T04:10:48;98294.06;;;12.39;74.55
73633;BME280;61927;50.080;14.418;2023-04-24T04:13:14;98293.22;;;12.39;74.51
73633;BME280;61927;50.080;14.418;2023-04-24T04:15:40;98293.22;;;12.39;74.95
73633;BME280;61927;50.080;14.418;2023-04-24T04:18:06;98299.41;;;12.39;74.73
73633;BME280;61927;50.080;14.418;2023-04-24T04:20:31;98304.00;;;12.37;74.52
73633;BME280;61927;50.080;14.418;2023-04-24T04:22:57;98304.44;;;12.42;74.81
73633;BME280;61927;50.080;14.418;2023-04-24T04:25:22;98302.75;;;12.41;74.80
73633;BME280;61927;50.080;14.418;2023-04-24T04:27:48;98309.75;;;12.42;74.81
73633;BME280;61927;50.080;14.418;2023-04-24T04:30:14;98309.75;;;12.42;74.35
73633;BME280;61927;50.080;14.418;2023-04-24T04:32:40;98311.97;;;12.37;74.60
73633;BME280;61927;50.080;14.418;2023-04-24T04:35:06;98312.25;;;12.34;74.98
73633;BME280;61927;50.080;14.418;2023-04-24T04:37:32;98313.94;;;12.35;74.90
73633;BME280;61927;50.080;14.418;2023-04-24T04:39:59;98324.31;;;12.38;75.06
73633;BME280;61927;50.080;14.418;2023-04-24T04:42:25;98320.81;;;12.38;74.99
73633;BME280;61927;50.080;14.418;2023-04-24T04:44:53;98317.31;;;12.37;74.76
73633;BME280;61927;50.080;14.418;2023-04-24T04:47:20;98325.94;;;12.29;75.03
73633;BME280;61927;50.080;14.418;2023-04-24T04:49:50;98330.56;;;12.27;75.34
73633;BME280;61927;50.080;14.418;2023-04-24T04:52:17;98333.09;;;12.29;75.34
73633;BME280;61927;50.080;14.418;2023-04-24T04:54:43;98331.00;;;12.33;75.21
73633;BME280;61927;50.080;14.418;2023-04-24T04:57:09;98333.53;;;12.34;75.18
73633;BME280;61927;50.080;14.418;2023-04-24T04:59:34;98331.31;;;12.39;75.05
73633;BME280;61927;50.080;14.418;2023-04-24T05:02:00;98327.72;;;12.50;74.49
73633;BME280;61927;50.080;14.418;2023-04-24T05:04:26;98332.78;;;12.53;74.28
73633;BME280;61927;50.080;14.418;2023-04-24T05:06:52;98337.13;;;12.54;74.05
73633;BME280;61927;50.080;14.418;2023-04-24T05:09:18;98336.97;;;12.55;74.10
73633;BME280;61927;50.080;14.418;2023-04-24T05:11:44;98336.84;;;12.57;73.94
73633;BME280;61927;50.080;14.418;2023-04-24T05:14:10;98339.94;;;12.62;73.74
73633;BME280;61927;50.080;14.418;2023-04-24T05:16:38;98337.84;;;12.66;73.59
73633;BME280;61927;50.080;14.418;2023-04-24T05:19:03;98347.00;;;12.73;73.49
73633;BME280;61927;50.080;14.418;2023-04-24T05:21:29;98342.25;;;12.76;73.41
73633;BME280;61927;50.080;14.418;2023-04-24T05:23:56;98359.63;;;12.80;73.33
73633;BME280;61927;50.080;14.418;2023-04-24T05:26:22;98355.84;;;12.83;73.14
73633;BME280;61927;50.080;14.418;2023-04-24T05:28:48;98356.69;;;12.83;73.30
73633;BME280;61927;50.080;14.418;2023-04-24T05:31:14;98364.53;;;12.85;72.95
73633;BME280;61927;50.080;14.418;2023-04-24T05:33:39;98349.81;;;12.81;72.97
73633;BME280;61927;50.080;14.418;2023-04-24T05:36:06;98351.50;;;12.82;73.26
73633;BME280;61927;50.080;14.418;2023-04-24T05:38:32;98359.34;;;12.83;72.79
73633;BME280;61927;50.080;14.418;2023-04-24T05:40:57;98353.59;;;12.78;72.82
73633;BME280;61927;50.080;14.418;2023-04-24T05:43:23;98355.09;;;12.71;73.20
73633;BME280;61927;50.080;14.418;2023-04-24T05:45:48;98360.44;;;12.71;73.48
73633;BME280;61927;50.080;14.418;2023-04-24T05:48:15;98353.56;;;12.69;73.34
73633;BME280;61927;50.080;14.418;2023-04-24T05:50:41;98361.69;;;12.67;73.44
73633;BME280;61927;50.080;14.418;2023-04-24T05:53:07;98361.41;;;12.70;73.13
73633;BME280;61927;50.080;14.418;2023-04-24T05:55:33;98362.69;;;12.76;73.03
73633;BME280;61927;50.080;14.418;2023-04-24T05:57:59;98372.38;;;12.77;73.15
73633;BME280;61927;50.080;14.418;2023-04-24T06:00:25;98371.66;;;12.75;73.28
73633;BME280;61927;50.080;14.418;2023-04-24T06:02:51;98377.81;;;12.75;73.43
73633;BME280;61927;50.080;14.418;2023-04-24T06:05:18;98378.53;;;12.77;73.44
73633;BME280;61927;50.080;14.418;2023-04-24T06:07:44;98373.63;;;12.82;73.37
73633;BME280;61927;50.080;14.418;2023-04-24T06:10:10;98382.78;;;12.89;73.12
73633;BME280;61927;50.080;14.418;2023-04-24T06:12:36;98377.44;;;12.89;73.10
73633;BME280;61927;50.080;14.418;2023-04-24T06:15:02;98379.66;;;12.84;73.80
73633;BME280;61927;50.080;14.418;2023-04-24T06:17:28;98391.31;;;12.83;74.01
73633;BME280;61927;50.080;14.418;2023-04-24T06:19:53;98385.41;;;12.80;74.44
73633;BME280;61927;50.080;14.418;2023-04-24T06:22:19;98387.94;;;12.81;74.23
73633;BME280;61927;50.080;14.418;2023-04-24T06:24:44;98386.41;;;12.88;74.59
73633;BME280;61927;50.080;14.418;2023-04-24T06:27:11;98389.91;;;12.89;74.27
73633;BME280;61927;50.080;14.418;2023-04-24T06:29:37;98391.31;;;12.83;75.23
73633;BME280;61927;50.080;14.418;2023-04-24T06:32:03;98401.25;;;12.81;75.35
73633;BME280;61927;50.080;14.418;2023-04-24T06:34:29;98403.91;;;12.81;75.73
73633;BME280;61927;50.080;14.418;2023-04-24T06:36:56;98410.34;;;12.79;76.19
73633;BME280;61927;50.080;14.418;2023-04-24T06:39:22;98410.75;;;12.74;76.18
73633;BME280;61927;50.080;14.418;2023-04-24T06:41:47;98415.94;;;12.76;76.53
73633;BME280;61927;50.080;14.418;2023-04-24T06:44:13;98407.13;;;12.85;76.38
73633;BME280;61927;50.080;14.418;2023-04-24T06:46:40;98413.16;;;12.87;76.32
73633;BME280;61927;50.080;14.418;2023-04-24T06:49:06;98406.78;;;12.99;76.26
73633;BME280;61927;50.080;14.418;2023-04-24T06:51:32;98408.75;;;13.07;76.31
73633;BME280;61927;50.080;14.418;2023-04-24T06:53:58;98407.09;;;13.15;75.52
73633;BME280;61927;50.080;14.418;2023-04-24T06:56:25;98406.44;;;13.23;75.14
73633;BME280;61927;50.080;14.418;2023-04-24T06:58:51;98398.59;;;13.31;74.98
73633;BME280;61927;50.080;14.418;2023-04-24T07:01:17;98404.22;;;13.38;74.19
73633;BME280;61927;50.080;14.418;2023-04-24T07:03:43;98407.31;;;13.43;74.69
73633;BME280;61927;50.080;14.418;2023-04-24T07:06:09;98405.50;;;13.53;74.49
73633;BME280;61927;50.080;14.418;2023-04-24T07:08:36;98413.22;;;13.56;74.98
73633;BME280;61927;50.080;14.418;2023-04-24T07:11:02;98416.59;;;13.58;74.32
73633;BME280;61927;50.080;14.418;2023-04-24T07:13:28;98421.94;;;13.58;74.89
73633;BME280;61927;50.080;14.418;2023-04-24T07:15:54;98422.63;;;13.60;74.33
73633;BME280;61927;50.080;14.418;2023-04-24T07:18:21;98423.03;;;13.55;74.31
73633;BME280;61927;50.080;14.418;2023-04-24T07:20:52;98425.44;;;13.58;73.89
73633;BME280;61927;50.080;14.418;2023-04-24T07:23:19;98421.09;;;13.57;73.68
73633;BME280;61927;50.080;14.418;2023-04-24T07:25:45;98426.28;;;13.59;73.75
73633;BME280;61927;50.080;14.418;2023-04-24T07:32:47;98424.19;;;13.82;73.30
73633;BME280;61927;50.080;14.418;2023-04-24T07:35:43;98421.53;;;13.72;72.36
73633;BME280;61927;50.080;14.418;2023-04-24T07:38:33;98422.91;;;13.76;72.88
73633;BME280;61927;50.080;14.418;2023-04-24T07:41:27;98422.09;;;13.76;71.75
73633;BME280;61927;50.080;14.418;2023-04-24T07:44:18;98426.16;;;13.70;72.11
73633;BME280;61927;50.080;14.418;2023-04-24T07:47:09;98430.63;;;13.70;72.01
73633;BME280;61927;50.080;14.418;2023-04-24T07:50:00;98438.78;;;13.68;71.91
73633;BME280;61927;50.080;14.418;2023-04-24T07:52:51;98435.25;;;13.68;71.64
73633;BME280;61927;50.080;14.418;2023-04-24T07:55:42;98440.31;;;13.71;71.93
73633;BME280;61927;50.080;14.418;2023-04-24T07:58:34;98440.31;;;13.71;72.30
73633;BME280;61927;50.080;14.418;2023-04-24T08:01:24;98445.38;;;13.64;71.43
73633;BME280;61927;50.080;14.418;2023-04-24T08:04:15;98444.22;;;13.57;72.09
73633;BME280;61927;50.080;14.418;2023-04-24T08:07:06;98441.28;;;13.60;72.28
73633;BME280;61927;50.080;14.418;2023-04-24T08:09:39;98450.28;;;13.59;72.44
73633;BME280;61927;50.080;14.418;2023-04-24T08:12:14;98445.91;;;13.58;72.58
73633;BME280;61927;50.080;14.418;2023-04-24T08:14:40;98439.88;;;13.56;72.11
73633;BME280;61927;50.080;14.418;2023-04-24T08:17:07;98441.56;;;13.57;72.40
73633;BME280;61927;50.080;14.418;2023-04-24T08:19:33;98445.50;;;13.53;72.08
73633;BME280;61927;50.080;14.418;2023-04-24T08:21:58;98441.56;;;13.57;72.29
73633;BME280;61927;50.080;14.418;2023-04-24T08:24:25;98436.25;;;13.67;72.50
73633;BME280;61927;50.080;14.418;2023-04-24T08:26:52;98438.78;;;13.68;72.74
73633;BME280;61927;50.080;14.418;2023-04-24T08:29:47;98442.00;;;13.72;72.65
73633;BME280;61927;50.080;14.418;2023-04-24T08:32:28;98434.00;;;13.72;71.99
73633;BME280;61927;50.080;14.418;2023-04-24T08:34:56;98434.16;;;13.70;71.94
73633;BME280;61927;50.080;14.418;2023-04-24T08:37:23;98434.84;;;13.72;71.96
73633;BME280;61927;50.080;14.418;2023-04-24T08:40:15;98434.72;;;13.74;71.97
73633;BME280;61927;50.080;14.418;2023-04-24T08:42:46;98439.63;;;13.78;71.76
73633;BME280;61927;50.080;14.418;2023-04-24T08:45:12;98439.75;;;13.77;72.23
73633;BME280;61927;50.080;14.418;2023-04-24T08:47:40;98441.44;;;13.78;72.69
73633;BME280;61927;50.080;14.418;2023-04-24T08:50:31;98437.53;;;13.82;73.35
73633;BME280;61927;50.080;14.418;2023-04-24T08:53:24;98445.78;;;13.79;71.65
73633;BME280;61927;50.080;14.418;2023-04-24T08:56:16;98449.31;;;13.79;73.15
73633;BME280;61927;50.080;14.418;2023-04-24T08:58:44;98444.53;;;13.83;72.99
73633;BME280;61927;50.080;14.418;2023-04-24T09:01:10;98450.16;;;13.80;73.03
73633;BME280;61927;50.080;14.418;2023-04-24T09:03:38;98454.09;;;13.95;72.34
73633;BME280;61927;50.080;14.418;2023-04-24T09:06:06;98454.78;;;13.97;72.78
73633;BME280;61927;50.080;14.418;2023-04-24T09:08:34;98451.97;;;13.99;72.45
73633;BME280;61927;50.080;14.418;2023-04-24T09:11:01;98454.50;;;13.90;72.76
73633;BME280;61927;50.080;14.418;2023-04-24T09:13:31;98462.78;;;13.87;73.51
73633;BME280;61927;50.080;14.418;2023-04-24T09:16:00;98461.53;;;13.92;73.94
73633;BME280;61927;50.080;14.418;2023-04-24T09:18:27;98453.09;;;13.96;74.27
73633;BME280;61927;50.080;14.418;2023-04-24T09:21:04;98452.53;;;14.02;73.73
73633;BME280;61927;50.080;14.418;2023-04-24T09:23:41;98447.19;;;14.31;73.35
73633;BME280;61927;50.080;14.418;2023-04-24T09:26:58;98443.50;;;14.61;71.50
73633;BME280;61927;50.080;14.418;2023-04-24T09:29:31;98448.81;;;14.71;71.33
73633;BME280;61927;50.080;14.418;2023-04-24T09:31:58;98442.31;;;14.83;71.31
73633;BME280;61927;50.080;14.418;2023-04-24T09:34:26;98437.47;;;14.96;69.96
73633;BME280;61927;50.080;14.418;2023-04-24T09:36:52;98430.59;;;14.94;68.63
73633;BME280;61927;50.080;14.418;2023-04-24T09:39:21;98434.97;;;14.85;69.71
73633;BME280;61927;50.080;14.418;2023-04-24T09:42:11;98436.53;;;14.88;68.95
73633;BME280;61927;50.080;14.418;2023-04-24T09:45:36;98434.09;;;14.94;68.36
73633;BME280;61927;50.080;14.418;2023-04-24T09:48:34;98432.94;;;15.06;68.39
73633;BME280;61927;50.080;14.418;2023-04-24T09:51:05;98427.34;;;15.00;68.13
73633;BME280;61927;50.080;14.418;2023-04-24T09:53:32;98423.31;;;14.86;68.41
73633;BME280;61927;50.080;14.418;2023-04-24T09:56:05;98423.75;;;14.81;68.62
73633;BME280;61927;50.080;14.418;2023-04-24T09:58:35;98421.44;;;14.96;68.83
73633;BME280;61927;50.080;14.418;2023-04-24T10:01:03;98419.97;;;15.11;68.47
73633;BME280;61927;50.080;14.418;2023-04-24T10:03:33;98413.47;;;15.14;68.09
73633;BME280;61927;50.080;14.418;2023-04-24T10:06:00;98408.22;;;15.22;67.55
73633;BME280;61927;50.080;14.418;2023-04-24T10:08:33;98411.31;;;15.27;67.14
73633;BME280;61927;50.080;14.418;2023-04-24T10:11:02;98409.09;;;15.40;65.44
73633;BME280;61927;50.080;14.418;2023-04-24T10:13:28;98401.94;;;15.41;65.72
73633;BME280;61927;50.080;14.418;2023-04-24T10:15:56;98411.38;;;15.63;63.83
73633;BME280;61927;50.080;14.418;2023-04-24T10:18:23;98408.63;;;15.72;62.37
73633;BME280;61927;50.080;14.418;2023-04-24T10:20:53;98397.63;;;15.75;62.31
73633;BME280;61927;50.080;14.418;2023-04-24T10:23:20;98406.03;;;15.80;60.77
73633;BME280;61927;50.080;14.418;2023-04-24T10:25:46;98404.22;;;15.54;60.43
73633;BME280;61927;50.080;14.418;2023-04-24T10:28:12;98398.84;;;15.63;60.75
73633;BME280;61927;50.080;14.418;2023-04-24T10:30:42;98395.88;;;15.84;59.65
73633;BME280;61927;50.080;14.418;2023-04-24T10:33:08;98399.06;;;15.88;58.67
73633;BME280;61927;50.080;14.418;2023-04-24T10:35:38;98395.03;;;15.83;59.00
73633;BME280;61927;50.080;14.418;2023-04-24T10:38:29;98405.72;;;16.01;59.01
73633;BME280;61927;50.080;14.418;2023-04-24T10:41:20;98398.69;;;16.00;57.31
73633;BME280;61927;50.080;14.418;2023-04-24T10:44:23;98392.47;;;16.18;56.79
73633;BME280;61927;50.080;14.418;2023-04-24T10:46:57;98391.84;;;16.24;56.61
73633;BME280;61927;50.080;14.418;2023-04-24T10:49:29;98391.22;;;16.30;55.76
73633;BME280;61927;50.080;14.418;2023-04-24T10:52:00;98396.22;;;16.07;55.78
73633;BME280;61927;50.080;14.418;2023-04-24T10:54:50;98385.38;;;16.34;55.20
73633;BME280;61927;50.080;14.418;2023-04-24T10:59:45;98376.34;;;16.61;53.52
73633;BME280;61927;50.080;14.418;2023-04-24T11:02:14;98378.66;;;16.56;53.25
73633;BME280;61927;50.080;14.418;2023-04-24T11:04:41;98377.34;;;16.60;54.15
73633;BME280;61927;50.080;14.418;2023-04-24T11:07:09;98374.78;;;16.76;52.00
73633;BME280;61927;50.080;14.418;2023-04-24T11:09:35;98380.50;;;16.56;51.31
73633;BME280;61927;50.080;14.418;2023-04-24T11:12:06;98379.13;;;16.00;52.79
73633;BME280;61927;50.080;14.418;2023-04-24T11:17:30;98368.47;;;16.08;53.35
73633;BME280;61927;50.080;14.418;2023-04-24T11:20:23;98367.78;;;16.06;52.89
73633;BME280;61927;50.080;14.418;2023-04-24T11:22:53;98365.91;;;16.24;52.47
73633;BME280;61927;50.080;14.418;2023-04-24T11:25:21;98362.66;;;16.38;52.69
73633;BME280;61927;50.080;14.418;2023-04-24T11:27:49;98364.22;;;16.49;52.34
73633;BME280;61927;50.080;14.418;2023-04-24T11:30:19;98368.88;;;16.65;51.78
73633;BME280;61927;50.080;14.418;2023-04-24T11:32:50;98368.97;;;16.89;51.60
73633;BME280;61927;50.080;14.418;2023-04-24T11:35:19;98378.78;;;17.15;50.92
73633;BME280;61927;50.080;14.418;2023-04-24T11:37:47;98377.06;;;16.97;49.29
73633;BME280;61927;50.080;14.418;2023-04-24T11:40:39;98368.41;;;17.11;49.37
73633;BME280;61927;50.080;14.418;2023-04-24T11:43:34;98358.91;;;17.33;48.48
73633;BME280;61927;50.080;14.418;2023-04-24T11:46:30;98367.00;;;17.50;48.48
73633;BME280;61927;50.080;14.418;2023-04-24T11:49:20;98364.03;;;17.69;47.37
73633;BME280;61927;50.080;14.418;2023-04-24T11:52:15;98371.41;;;17.67;47.26
73633;BME280;61927;50.080;14.418;2023-04-24T11:58:05;98360.13;;;17.63;47.59
73633;BME280;61927;50.080;14.418;2023-04-24T12:00:56;98350.38;;;17.46;47.72
73633;BME280;61927;50.080;14.418;2023-04-24T12:03:50;98350.34;;;17.22;49.17
73633;BME280;61927;50.080;14.418;2023-04-24T12:06:19;98363.19;;;17.10;49.19
73633;BME280;61927;50.080;14.418;2023-04-24T12:08:46;98371.50;;;16.91;50.17
73633;BME280;61927;50.080;14.418;2023-04-24T12:11:15;98401.56;;;16.25;55.51
73633;BME280;61927;50.080;14.418;2023-04-24T12:13:41;98404.97;;;15.73;58.97
73633;BME280;61927;50.080;14.418;2023-04-24T12:16:32;98401.03;;;15.50;61.69
73633;BME280;61927;50.080;14.418;2023-04-24T12:18:59;98409.56;;;15.36;64.24
73633;BME280;61927;50.080;14.418;2023-04-24T12:21:26;98402.41;;;15.09;66.05
73633;BME280;61927;50.080;14.418;2023-04-24T12:23:55;98409.19;;;15.03;66.18
73633;BME280;61927;50.080;14.418;2023-04-24T12:26:21;98418.63;;;14.98;66.29
73633;BME280;61927;50.080;14.418;2023-04-24T12:28:49;98413.63;;;14.85;66.40
73633;BME280;61927;50.080;14.418;2023-04-24T12:31:16;98414.66;;;14.74;66.37
73633;BME280;61927;50.080;14.418;2023-04-24T12:33:42;98412.84;;;14.65;66.75
73633;BME280;61927;50.080;14.418;2023-04-24T12:36:12;98412.72;;;14.67;67.17
73633;BME280;61927;50.080;14.418;2023-04-24T12:38:38;98406.09;;;14.71;66.69
73633;BME280;61927;50.080;14.418;2023-04-24T12:41:30;98408.72;;;14.80;65.75
73633;BME280;61927;50.080;14.418;2023-04-24T12:44:10;98411.50;;;14.89;65.24
73633;BME280;61927;50.080;14.418;2023-04-24T12:46:40;98400.38;;;14.93;65.25
73633;BME280;61927;50.080;14.418;2023-04-24T12:49:06;98392.59;;;15.00;65.93
73633;BME280;61927;50.080;14.418;2023-04-24T12:51:32;98396.59;;;15.13;65.32
73633;BME280;61927;50.080;14.418;2023-04-24T12:53:58;98401.84;;;15.33;64.47
73633;BME280;61927;50.080;14.418;2023-04-24T12:56:25;98400.41;;;15.38;63.75
73633;BME280;61927;50.080;14.418;2023-04-24T12:58:51;98400.09;;;15.41;63.55
73633;BME280;61927;50.080;14.418;2023-04-24T13:01:17;98401.47;;;15.45;64.41
73633;BME280;61927;50.080;14.418;2023-04-24T13:03:43;98397.72;;;15.38;63.43
73633;BME280;61927;50.080;14.418;2023-04-24T13:06:08;98394.56;;;15.25;64.18
73633;BME280;61927;50.080;14.418;2023-04-24T13:08:34;98388.75;;;15.12;64.99
73633;BME280;61927;50.080;14.418;2023-04-24T13:11:00;98387.06;;;15.11;65.92
73633;BME280;61927;50.080;14.418;2023-04-24T13:13:26;98391.22;;;15.23;66.10
73633;BME280;61927;50.080;14.418;2023-04-24T13:15:51;98385.66;;;15.34;65.87